Time;durP1;ratioP1;P1;durP2;ratioP2;P2;SDS_P1;SDS_P2;PMS_P1;PMS_P2;Temp;Humidity;BMP_temperature;BMP_pressure;BME280_temperature;BME280_humidity;BME280_pressure;Samples;Min_cycle;Max_cycle;Signal;HPM_P1;HPM_P2
2024/03/24 00:01:08;;;;;;;16.50;9.50;;;;;;;4.68;68.54;99362.45;111295;1253;21949;-71
2024/03/24 00:03:51;;;;;;;14.50;9.60;;;;;;;4.67;68.47;99364.45;111273;1253;21961;-71
2024/03/24 00:06:20;;;;;;;15.40;10.00;;;;;;;4.64;68.56;99366.17;111340;1253;24518;-72
2024/03/24 00:08:49;;;;;;;19.50;10.20;;;;;;;4.62;68.33;99361.42;111239;1253;21953;-72
2024/03/24 00:11:17;;;;;;;17.50;10.60;;;;;;;4.61;68.42;99361.48;111288;1253;22123;-71
2024/03/24 00:13:46;;;;;;;19.30;10.60;;;;;;;4.58;68.39;99358.54;111294;1253;21964;-71
2024/03/24 00:16:16;;;;;;;16.70;10.00;;;;;;;4.57;68.47;99353.59;111307;1253;21951;-70
2024/03/24 00:18:45;;;;;;;20.30;11.50;;;;;;;4.54;68.56;99352.18;111300;1253;21956;-71
2024/03/24 00:21:14;;;;;;;17.10;11.90;;;;;;;4.53;68.61;99350.67;111303;1253;21965;-71
2024/03/24 00:23:43;;;;;;;19.00;10.90;;;;;;;4.52;68.61;99345.83;111020;1253;21964;-70
2024/03/24 00:26:12;;;;;;;17.60;11.30;;;;;;;4.52;68.69;99340.96;111343;1253;21960;-70
2024/03/24 00:28:41;;;;;;;17.50;11.50;;;;;;;4.50;68.80;99337.24;111301;1253;21953;-71
2024/03/24 00:31:10;;;;;;;16.90;10.70;;;;;;;4.46;68.82;99335.70;111282;1253;21960;-71
2024/03/24 00:33:38;;;;;;;18.10;10.60;;;;;;;4.44;68.83;99333.92;111263;1253;21960;-70
2024/03/24 00:36:07;;;;;;;24.70;12.20;;;;;;;4.42;68.92;99331.93;111275;1253;23570;-70
2024/03/24 00:38:36;;;;;;;16.50;11.10;;;;;;;4.42;69.23;99325.18;111316;1253;21956;-71
2024/03/24 00:41:07;;;;;;;16.90;11.30;;;;;;;4.39;69.14;99320.48;111287;1253;21956;-71
2024/03/24 00:43:36;;;;;;;18.00;12.00;;;;;;;4.36;69.21;99316.29;111257;1250;23025;-71
2024/03/24 00:46:05;;;;;;;17.50;9.90;;;;;;;4.34;69.32;99312.10;111269;1253;23618;-72
2024/03/24 00:48:34;;;;;;;19.70;11.20;;;;;;;4.29;69.49;99305.95;111283;1253;21977;-71
2024/03/24 00:51:03;;;;;;;14.40;9.90;;;;;;;4.26;69.52;99307.30;111274;1253;22038;-72
2024/03/24 00:53:33;;;;;;;16.90;10.40;;;;;;;4.26;69.58;99304.54;111309;1253;23582;-71
2024/03/24 00:56:02;;;;;;;15.70;10.60;;;;;;;4.25;69.58;99299.70;111327;1253;23482;-72
2024/03/24 00:58:31;;;;;;;14.00;10.20;;;;;;;4.24;69.58;99295.11;111279;1253;21958;-71
2024/03/24 01:01:00;;;;;;;15.20;10.80;;;;;;;4.20;69.55;99295.52;111296;1253;21956;-71
2024/03/24 01:03:28;;;;;;;14.80;10.30;;;;;;;4.16;69.58;99293.64;111341;1253;23675;-71
2024/03/24 01:05:57;;;;;;;12.00;9.50;;;;;;;4.13;69.79;99296.83;111206;1253;21967;-71
2024/03/24 01:08:26;;;;;;;22.30;12.00;;;;;;;4.09;69.88;99294.60;111295;1253;21962;-71
2024/03/24 01:10:55;;;;;;;17.30;10.80;;;;;;;4.08;69.97;99293.09;111322;1253;21983;-71
2024/03/24 01:13:23;;;;;;;13.20;10.10;;;;;;;4.09;69.95;99294.80;111269;1253;22602;-71
2024/03/24 01:15:52;;;;;;;14.90;11.80;;;;;;;4.09;69.98;99292.53;111247;1242;23026;-71
2024/03/24 01:18:21;;;;;;;16.40;10.50;;;;;;;4.07;69.95;99287.59;111311;1253;21968;-72
2024/03/24 01:20:50;;;;;;;16.10;11.30;;;;;;;4.04;69.91;99284.28;111321;1253;22993;-72
2024/03/24 01:23:19;;;;;;;18.50;12.80;;;;;;;4.03;70.10;99280.36;111274;1253;22247;-71
2024/03/24 01:25:48;;;;;;;19.60;12.80;;;;;;;4.03;70.14;99282.05;111282;1253;23795;-70
2024/03/24 01:28:16;;;;;;;18.10;12.10;;;;;;;4.03;70.01;99279.83;111309;1253;23029;-70
2024/03/24 01:30:45;;;;;;;17.30;11.90;;;;;;;4.02;70.14;99279.54;111307;1253;21963;-71
2024/03/24 01:33:14;;;;;;;19.30;12.30;;;;;;;4.04;70.10;99273.52;111293;1253;21953;-70
2024/03/24 01:35:47;;;;;;;17.50;12.40;;;;;;;4.00;70.01;99271.25;111007;1253;21954;-70
2024/03/24 01:38:16;;;;;;;16.00;12.10;;;;;;;3.95;70.10;99271.73;111078;1253;21954;-70
2024/03/24 01:40:49;;;;;;;20.40;13.60;;;;;;;3.91;70.17;99270.26;111088;1253;21964;-71
2024/03/24 01:43:18;;;;;;;18.90;12.80;;;;;;;3.87;70.37;99264.79;111232;1248;22629;-73
2024/03/24 01:45:47;;;;;;;17.80;12.40;;;;;;;3.82;70.53;99264.69;111482;1253;21942;-70
2024/03/24 01:48:15;;;;;;;18.60;12.30;;;;;;;3.79;70.66;99261.59;111323;1253;22565;-73
2024/03/24 01:50:44;;;;;;;18.90;12.20;;;;;;;3.77;70.61;99266.22;111320;1253;21980;-72
2024/03/24 01:53:13;;;;;;;17.60;12.20;;;;;;;3.75;70.66;99268.05;111197;1253;21943;-71
2024/03/24 01:55:42;;;;;;;21.10;13.30;;;;;;;3.76;70.69;99267.16;111247;1253;21980;-71
2024/03/24 01:58:11;;;;;;;17.30;11.50;;;;;;;3.77;70.63;99270.23;111289;1253;23789;-71
2024/03/24 02:00:40;;;;;;;16.30;12.20;;;;;;;3.77;70.73;99267.59;111281;1253;23689;-71
2024/03/24 02:03:09;;;;;;;17.80;12.10;;;;;;;3.77;70.66;99270.75;111369;1242;23756;-73
2024/03/24 02:05:38;;;;;;;17.50;12.70;;;;;;;3.78;70.54;99275.23;111320;1253;22257;-71
2024/03/24 02:08:07;;;;;;;19.90;13.30;;;;;;;3.79;70.68;99276.56;111328;1253;21939;-71
2024/03/24 02:10:36;;;;;;;17.00;11.50;;;;;;;3.78;70.81;99276.08;111340;1253;21957;-71
2024/03/24 02:13:04;;;;;;;20.30;12.50;;;;;;;3.80;70.90;99280.15;111297;1253;23584;-71
2024/03/24 02:15:33;;;;;;;17.10;12.80;;;;;;;3.82;70.89;99281.74;111307;1253;23570;-71
2024/03/24 02:18:03;;;;;;;19.50;12.30;;;;;;;3.84;71.10;99279.38;111359;1253;21942;-71
2024/03/24 02:20:32;;;;;;;15.10;11.70;;;;;;;3.88;70.83;99279.47;111292;1253;21995;-71
2024/03/24 02:23:01;;;;;;;14.90;11.00;;;;;;;3.87;70.94;99279.20;111307;1253;21958;-71
2024/03/24 02:25:29;;;;;;;17.40;13.30;;;;;;;3.87;70.89;99281.65;111278;1253;22005;-71
2024/03/24 02:27:58;;;;;;;14.10;11.00;;;;;;;3.85;70.71;99277.72;111292;1253;21949;-71
2024/03/24 02:30:27;;;;;;;14.50;10.90;;;;;;;3.84;70.75;99277.77;111351;1253;23681;-70
2024/03/24 02:32:56;;;;;;;15.40;10.80;;;;;;;3.83;70.82;99279.95;111280;1253;23688;-70
2024/03/24 02:35:25;;;;;;;16.40;10.80;;;;;;;3.83;70.97;99283.28;111323;1253;21972;-71
2024/03/24 02:37:55;;;;;;;13.40;11.30;;;;;;;3.85;70.96;99282.78;111293;1253;22019;-71
2024/03/24 02:40:23;;;;;;;14.50;11.20;;;;;;;3.88;70.98;99286.64;111326;1253;21955;-71
2024/03/24 02:42:52;;;;;;;19.00;12.10;;;;;;;3.91;71.00;99284.19;111240;1253;21962;-71
2024/03/24 02:45:21;;;;;;;16.40;11.50;;;;;;;3.92;70.85;99284.80;111301;1249;21963;-71
2024/03/24 02:47:49;;;;;;;15.00;10.80;;;;;;;3.95;70.96;99285.34;111317;1253;23605;-72
2024/03/24 02:50:18;;;;;;;17.70;11.50;;;;;;;3.96;70.83;99287.55;111258;1253;21961;-73
2024/03/24 02:52:47;;;;;;;14.10;11.30;;;;;;;3.98;70.81;99288.64;111266;1253;21967;-72
2024/03/24 02:55:16;;;;;;;18.30;11.80;;;;;;;4.00;70.90;99288.69;111244;1253;22258;-72
2024/03/24 02:57:45;;;;;;;13.90;10.70;;;;;;;4.03;70.75;99289.73;111271;1248;23061;-70
2024/03/24 03:00:14;;;;;;;16.10;10.60;;;;;;;4.07;70.67;99288.48;111291;1253;21963;-70
2024/03/24 03:02:43;;;;;;;16.10;11.90;;;;;;;4.09;70.61;99286.60;111336;1253;23008;-71
2024/03/24 03:05:12;;;;;;;12.60;10.40;;;;;;;4.09;70.50;99284.15;111305;1253;23029;-71
2024/03/24 03:07:42;;;;;;;13.70;10.20;;;;;;;4.11;70.62;99275.52;111310;1253;22173;-71
2024/03/24 03:10:11;;;;;;;14.50;10.70;;;;;;;4.13;70.52;99273.44;111293;1253;23011;-70
2024/03/24 03:12:42;;;;;;;14.00;9.90;;;;;;;4.15;70.31;99272.66;111006;1253;22069;-71
2024/03/24 03:15:15;;;;;;;12.80;10.70;;;;;;;4.13;70.38;99272.76;111314;1253;25149;-71
2024/03/24 03:17:43;;;;;;;13.60;9.80;;;;;;;4.12;70.27;99272.14;111286;1253;21955;-70
2024/03/24 03:20:14;;;;;;;12.40;9.70;;;;;;;4.10;70.45;99268.56;111346;1253;22030;-69
2024/03/24 03:22:43;;;;;;;12.50;9.80;;;;;;;4.11;70.39;99265.92;111087;1253;22052;-70
2024/03/24 03:25:12;;;;;;;12.70;10.20;;;;;;;4.11;70.37;99266.45;111266;1253;21963;-70
2024/03/24 03:27:42;;;;;;;14.30;10.50;;;;;;;4.10;70.57;99264.44;111273;1253;21955;-72
2024/03/24 03:30:13;;;;;;;12.40;10.90;;;;;;;4.12;70.46;99268.30;111251;1253;23599;-71
2024/03/24 03:32:42;;;;;;;17.70;10.70;;;;;;;4.11;70.41;99269.59;111253;1253;21976;-72
2024/03/24 03:35:11;;;;;;;13.00;10.50;;;;;;;4.10;70.44;99270.98;111251;1253;21958;-71
2024/03/24 03:37:40;;;;;;;11.10;9.80;;;;;;;4.11;70.38;99272.87;111279;1247;23021;-70
2024/03/24 03:40:10;;;;;;;12.10;9.10;;;;;;;4.10;70.38;99270.65;110962;1253;23570;-70
2024/03/24 03:42:39;;;;;;;14.40;10.40;;;;;;;4.09;70.35;99266.77;111327;1253;21964;-70
2024/03/24 03:45:10;;;;;;;12.50;10.10;;;;;;;4.08;70.34;99264.35;111017;1253;24332;-71
2024/03/24 03:47:40;;;;;;;14.90;11.40;;;;;;;4.07;70.46;99261.78;111249;1253;21961;-73
2024/03/24 03:50:13;;;;;;;16.30;10.80;;;;;;;4.05;70.50;99263.66;111189;1241;23085;-70
2024/03/24 03:52:47;;;;;;;16.70;11.10;;;;;;;4.04;70.60;99257.80;111266;1253;22159;-70
2024/03/24 03:55:17;;;;;;;13.90;11.00;;;;;;;4.05;70.64;99259.47;111251;1253;21963;-70
2024/03/24 03:57:45;;;;;;;15.60;11.50;;;;;;;4.07;70.57;99264.58;111292;1253;21942;-70
2024/03/24 04:00:15;;;;;;;13.50;12.10;;;;;;;4.08;70.51;99263.70;111292;1253;21967;-70
2024/03/24 04:02:48;;;;;;;13.40;11.10;;;;;;;4.08;70.63;99262.81;111237;1253;21966;-71
2024/03/24 04:05:17;;;;;;;16.40;10.20;;;;;;;4.07;70.63;99266.00;111184;1253;22459;-71
2024/03/24 04:07:46;;;;;;;15.30;10.60;;;;;;;4.06;70.71;99263.60;111261;1253;23593;-70
2024/03/24 04:10:15;;;;;;;11.20;9.50;;;;;;;4.07;70.68;99263.75;110965;1252;23042;-70
2024/03/24 04:12:44;;;;;;;13.30;10.40;;;;;;;4.08;70.69;99260.00;111090;1253;21960;-70
2024/03/24 04:15:13;;;;;;;13.40;10.30;;;;;;;4.10;70.74;99257.80;111022;1253;23001;-70
2024/03/24 04:17:42;;;;;;;12.20;9.90;;;;;;;4.12;70.80;99254.21;111013;1253;22036;-70
2024/03/24 04:20:11;;;;;;;13.00;11.70;;;;;;;4.13;70.75;99253.75;111287;1253;21952;-70
2024/03/24 04:22:41;;;;;;;12.30;10.80;;;;;;;4.16;70.78;99254.48;111277;1253;21966;-71
2024/03/24 04:25:10;;;;;;;12.10;10.80;;;;;;;4.20;70.86;99251.61;111253;1253;21955;-71
2024/03/24 04:27:39;;;;;;;21.90;17.90;;;;;;;4.21;70.67;99253.13;111271;1253;21966;-72
2024/03/24 04:30:08;;;;;;;17.20;12.10;;;;;;;4.20;70.67;99252.27;111292;1253;22458;-71
2024/03/24 04:32:37;;;;;;;19.20;16.20;;;;;;;4.20;70.61;99253.34;111198;1253;21961;-70
2024/03/24 04:35:10;;;;;;;15.00;13.00;;;;;;;4.19;70.72;99255.64;111023;1253;21958;-70
2024/03/24 04:37:39;;;;;;;13.40;11.80;;;;;;;4.19;70.67;99255.50;110972;1253;21957;-71
2024/03/24 04:40:09;;;;;;;13.80;11.20;;;;;;;4.20;70.66;99255.45;111073;1253;21955;-72
2024/03/24 04:42:38;;;;;;;14.10;11.80;;;;;;;4.16;70.61;99253.24;111050;1253;23666;-70
2024/03/24 04:45:09;;;;;;;13.10;11.10;;;;;;;4.14;70.74;99250.92;111044;1253;21953;-71
2024/03/24 04:47:37;;;;;;;19.50;12.40;;;;;;;4.11;70.60;99249.39;111040;1253;21956;-71
2024/03/24 04:50:08;;;;;;;14.70;11.50;;;;;;;4.08;70.58;99250.63;111257;1253;23583;-71
2024/03/24 04:52:38;;;;;;;15.20;12.20;;;;;;;4.00;70.72;99248.45;111299;1253;21990;-71
2024/03/24 04:55:11;;;;;;;16.00;12.20;;;;;;;3.96;70.91;99247.34;111318;1253;21996;-71
2024/03/24 04:57:41;;;;;;;15.80;13.10;;;;;;;3.94;70.87;99249.36;111310;1253;21993;-72
2024/03/24 05:00:10;;;;;;;19.10;13.70;;;;;;;3.90;70.88;99247.29;111420;1253;24392;-72
2024/03/24 05:02:39;;;;;;;15.10;13.60;;;;;;;3.88;70.95;99249.52;112375;1253;21935;-70
2024/03/24 05:05:10;;;;;;;16.10;12.80;;;;;;;3.89;70.93;99247.73;111743;1253;21955;-70
2024/03/24 05:07:40;;;;;;;30.30;18.60;;;;;;;3.87;71.06;99247.70;111212;1249;23466;-71
2024/03/24 05:10:09;;;;;;;19.00;15.00;;;;;;;3.84;71.09;99251.87;111291;1253;21952;-71
2024/03/24 05:12:37;;;;;;;19.70;17.60;;;;;;;3.85;71.16;99252.17;111281;1253;23583;-71
2024/03/24 05:15:09;;;;;;;20.30;15.80;;;;;;;3.88;71.19;99256.16;111332;1253;22949;-71
2024/03/24 05:17:39;;;;;;;18.80;12.00;;;;;;;3.91;71.17;99254.39;111255;1253;23569;-72
2024/03/24 05:20:11;;;;;;;11.70;10.50;;;;;;;3.93;70.98;99252.91;111263;1253;21955;-71
2024/03/24 05:22:40;;;;;;;16.10;14.50;;;;;;;3.93;70.99;99255.50;111266;1253;21968;-71
2024/03/24 05:25:09;;;;;;;16.30;12.30;;;;;;;3.91;71.07;99255.42;111272;1253;23582;-73
2024/03/24 05:27:38;;;;;;;12.70;11.20;;;;;;;3.93;71.01;99258.97;111254;1253;24599;-72
2024/03/24 05:30:09;;;;;;;13.90;11.70;;;;;;;3.97;71.00;99262.74;111316;1253;23022;-72
2024/03/24 05:32:38;;;;;;;14.80;13.10;;;;;;;4.03;70.96;99264.30;111313;1253;21964;-71
2024/03/24 05:35:07;;;;;;;14.20;11.70;;;;;;;4.09;70.78;99264.45;111275;1253;22433;-72
2024/03/24 05:37:37;;;;;;;14.00;11.40;;;;;;;4.13;70.47;99266.98;111269;1253;21968;-73
2024/03/24 05:40:09;;;;;;;14.60;11.30;;;;;;;4.15;70.48;99267.77;111405;1253;21943;-73
2024/03/24 05:42:38;;;;;;;13.60;11.20;;;;;;;4.16;70.39;99267.52;111342;1253;23675;-73
2024/03/24 05:45:08;;;;;;;13.60;10.90;;;;;;;4.17;70.38;99267.98;111320;1252;23148;-72
2024/03/24 05:47:37;;;;;;;12.10;10.70;;;;;;;4.20;70.43;99273.04;111303;1252;21955;-73
2024/03/24 05:50:06;;;;;;;14.70;12.10;;;;;;;4.24;70.22;99274.36;111282;1253;21997;-74
2024/03/24 05:52:38;;;;;;;13.50;12.00;;;;;;;4.29;70.23;99272.61;111208;1253;22739;-73
2024/03/24 05:55:07;;;;;;;13.90;10.70;;;;;;;4.33;69.91;99273.60;111300;1241;21967;-73
2024/03/24 05:57:37;;;;;;;12.70;10.30;;;;;;;4.32;69.94;99278.53;111297;1253;21957;-73
2024/03/24 06:00:09;;;;;;;15.10;10.40;;;;;;;4.36;70.03;99278.83;111257;1253;21966;-74
2024/03/24 06:02:42;;;;;;;13.70;11.30;;;;;;;4.41;69.92;99279.73;111298;1251;21957;-74
2024/03/24 06:05:11;;;;;;;11.30;10.30;;;;;;;4.45;69.54;99275.48;111329;1253;24510;-75
2024/03/24 06:07:40;;;;;;;15.70;11.50;;;;;;;4.49;69.75;99279.42;111313;1253;21944;-74
2024/03/24 06:10:09;;;;;;;13.00;9.40;;;;;;;4.61;69.78;99272.94;111275;1253;22072;-75
2024/03/24 06:12:39;;;;;;;14.80;11.90;;;;;;;4.75;69.32;99275.89;111350;1253;21958;-75
2024/03/24 06:15:08;;;;;;;13.20;11.10;;;;;;;4.91;68.60;99273.64;111343;1253;23788;-74
2024/03/24 06:17:38;;;;;;;17.10;11.40;;;;;;;5.02;68.55;99273.27;111346;1253;23733;-74
2024/03/24 06:20:07;;;;;;;13.70;12.10;;;;;;;5.16;68.21;99277.47;111241;1253;22011;-74
2024/03/24 06:22:36;;;;;;;13.10;10.60;;;;;;;5.30;67.90;99273.23;111338;1248;23022;-73
2024/03/24 06:25:05;;;;;;;12.40;11.10;;;;;;;5.40;67.88;99276.05;111305;1253;23022;-73
2024/03/24 06:27:34;;;;;;;12.00;10.50;;;;;;;5.49;67.34;99274.90;111317;1253;23022;-75
2024/03/24 06:30:03;;;;;;;19.40;12.00;;;;;;;5.62;67.60;99275.63;111306;1253;23691;-74
2024/03/24 06:32:32;;;;;;;12.20;10.60;;;;;;;5.77;66.85;99274.77;111310;1253;21963;-76
2024/03/24 06:35:01;;;;;;;13.30;10.80;;;;;;;5.83;66.12;99272.95;111322;1253;21961;-74
2024/03/24 06:37:29;;;;;;;12.80;11.00;;;;;;;5.87;66.19;99275.16;111345;1253;21956;-75
2024/03/24 06:39:58;;;;;;;26.20;21.50;;;;;;;5.90;65.53;99275.17;111363;1253;21946;-74
2024/03/24 06:42:27;;;;;;;15.00;13.40;;;;;;;5.87;65.64;99275.15;111351;1253;21963;-73
2024/03/24 06:44:56;;;;;;;18.70;15.90;;;;;;;5.86;65.38;99276.78;111361;1253;23573;-73
2024/03/24 06:47:25;;;;;;;20.40;16.60;;;;;;;5.84;65.58;99277.98;111243;1253;22024;-73
2024/03/24 06:49:54;;;;;;;16.10;12.30;;;;;;;5.86;65.49;99277.34;111336;1253;21953;-74
2024/03/24 06:52:22;;;;;;;17.20;12.20;;;;;;;5.87;65.46;99275.34;111343;1253;21954;-75
2024/03/24 06:54:51;;;;;;;14.40;13.00;;;;;;;5.85;65.51;99279.14;111384;1253;21961;-73
2024/03/24 06:57:20;;;;;;;19.40;14.60;;;;;;;5.83;66.32;99275.58;111552;1251;22160;-73
2024/03/24 06:59:48;;;;;;;24.60;17.10;;;;;;;5.87;66.13;99273.40;111734;1253;23641;-74
2024/03/24 07:02:18;;;;;;;14.70;13.30;;;;;;;5.92;65.66;99273.80;112737;1253;22059;-72
2024/03/24 07:04:47;;;;;;;14.80;12.80;;;;;;;5.92;65.15;99273.23;113004;1253;21988;-73
2024/03/24 07:07:15;;;;;;;12.90;10.50;;;;;;;5.88;65.23;99274.73;113015;1253;21970;-74
2024/03/24 07:09:44;;;;;;;12.50;11.20;;;;;;;5.88;65.20;99273.73;112880;1253;21982;-74
2024/03/24 07:12:13;;;;;;;14.40;12.50;;;;;;;5.94;65.29;99273.48;112935;1253;23571;-74
2024/03/24 07:14:41;;;;;;;14.70;13.10;;;;;;;6.02;65.46;99280.66;112856;1253;23638;-75
2024/03/24 07:17:10;;;;;;;14.60;12.20;;;;;;;6.09;65.10;99280.13;111881;1253;21961;-74
2024/03/24 07:19:39;;;;;;;13.80;10.00;;;;;;;6.10;64.44;99279.56;111420;1253;21964;-74
2024/03/24 07:22:08;;;;;;;12.60;10.30;;;;;;;6.07;64.44;99282.91;111313;1253;21951;-73
2024/03/24 07:24:38;;;;;;;13.90;10.60;;;;;;;6.07;64.68;99290.30;111257;1253;21998;-76
2024/03/24 07:27:07;;;;;;;15.40;11.20;;;;;;;6.10;64.50;99290.94;111341;1253;24178;-75
2024/03/24 07:29:36;;;;;;;11.70;10.50;;;;;;;6.12;64.11;99295.14;111301;1253;21958;-74
2024/03/24 07:32:05;;;;;;;22.30;11.90;;;;;;;6.11;64.12;99295.10;111393;1253;22423;-76
2024/03/24 07:34:35;;;;;;;15.50;13.00;;;;;;;6.17;64.35;99297.63;111317;1251;21956;-73
2024/03/24 07:37:04;;;;;;;17.30;12.50;;;;;;;6.52;64.78;99296.95;111351;1253;23598;-76
2024/03/24 07:39:33;;;;;;;13.60;10.80;;;;;;;7.33;64.43;99292.83;111295;1248;22620;-75
2024/03/24 07:42:01;;;;;;;15.50;10.30;;;;;;;8.05;61.99;99284.23;111297;1253;24286;-74
2024/03/24 07:44:30;;;;;;;13.50;9.40;;;;;;;8.72;60.42;99284.15;111338;1253;21965;-74
2024/03/24 07:47:03;;;;;;;11.90;10.30;;;;;;;9.37;58.64;99284.31;111350;1253;21969;-74
2024/03/24 07:49:33;;;;;;;11.00;9.60;;;;;;;9.96;56.31;99285.59;112336;1253;21978;-74
2024/03/24 07:52:03;;;;;;;11.30;9.10;;;;;;;10.30;54.85;99288.70;112378;1253;23154;-74
2024/03/24 07:54:33;;;;;;;12.20;9.70;;;;;;;10.39;54.16;99287.56;111381;1253;23053;-74
2024/03/24 07:57:02;;;;;;;8.80;7.60;;;;;;;10.31;53.69;99290.57;111317;1253;24637;-74
2024/03/24 07:59:30;;;;;;;10.90;7.80;;;;;;;10.21;53.49;99287.88;111287;1253;23572;-73
2024/03/24 08:01:59;;;;;;;14.00;9.20;;;;;;;9.99;53.41;99286.40;111337;1253;22922;-73
2024/03/24 08:04:28;;;;;;;14.20;10.90;;;;;;;9.75;53.92;99286.50;111268;1253;21955;-72
2024/03/24 08:06:57;;;;;;;19.60;14.80;;;;;;;9.47;54.30;99283.34;111285;1253;21950;-73
2024/03/24 08:09:26;;;;;;;18.30;13.00;;;;;;;9.32;54.84;99281.62;111276;1253;22483;-75
2024/03/24 08:11:55;;;;;;;109.60;98.80;;;;;;;9.24;54.89;99279.66;111219;1253;21963;-73
2024/03/24 08:14:24;;;;;;;21.50;16.90;;;;;;;9.07;54.67;99278.34;111368;1253;21951;-76
2024/03/24 08:16:57;;;;;;;14.60;9.90;;;;;;;8.74;54.86;99279.11;111026;1248;22038;-73
2024/03/24 08:19:26;;;;;;;11.80;9.60;;;;;;;8.46;56.20;99283.74;110793;1258;23692;-72
2024/03/24 08:21:56;;;;;;;10.80;7.60;;;;;;;8.33;56.22;99280.55;111021;1258;23595;-71
2024/03/24 08:24:25;;;;;;;11.40;7.80;;;;;;;8.22;56.51;99282.42;111115;1258;21961;-72
2024/03/24 08:26:53;;;;;;;8.00;7.30;;;;;;;8.11;56.42;99277.16;111035;1258;21974;-75
2024/03/24 08:29:22;;;;;;;9.30;7.80;;;;;;;7.95;56.58;99270.33;111031;1258;21963;-74
2024/03/24 08:31:51;;;;;;;12.10;10.10;;;;;;;7.81;57.41;99270.48;110885;1258;21981;-73
2024/03/24 08:34:20;;;;;;;14.00;11.50;;;;;;;7.82;57.47;99268.84;111206;1253;23625;-72
2024/03/24 08:36:49;;;;;;;12.70;9.80;;;;;;;7.99;57.58;99269.48;111309;1253;23673;-72
2024/03/24 08:39:18;;;;;;;16.80;14.00;;;;;;;8.54;57.64;99275.57;111344;1253;22726;-73
2024/03/24 08:41:47;;;;;;;14.60;12.00;;;;;;;9.08;56.45;99276.71;111330;1253;21975;-72
2024/03/24 08:44:16;;;;;;;10.80;8.60;;;;;;;9.40;55.37;99276.86;111403;1253;23693;-73
2024/03/24 08:46:44;;;;;;;12.30;10.60;;;;;;;9.53;54.15;99278.82;111424;1251;23592;-73
2024/03/24 08:49:13;;;;;;;13.00;11.40;;;;;;;9.42;53.55;99277.05;111400;1253;21952;-72
2024/03/24 08:51:43;;;;;;;13.30;9.70;;;;;;;9.46;54.51;99280.79;111411;1253;23292;-73
2024/03/24 08:54:12;;;;;;;14.40;11.60;;;;;;;9.62;53.43;99279.50;111354;1253;22083;-65
2024/03/24 08:56:41;;;;;;;14.40;9.00;;;;;;;9.78;53.29;99282.52;111125;1253;21955;-72
2024/03/24 08:59:10;;;;;;;11.60;8.80;;;;;;;9.90;52.36;99276.77;111346;1253;23059;-70
2024/03/24 09:01:38;;;;;;;13.20;10.00;;;;;;;10.03;52.18;99272.38;111213;1253;21952;-69
2024/03/24 09:04:09;;;;;;;9.90;8.00;;;;;;;10.10;51.91;99274.37;111265;1253;23686;-74
2024/03/24 09:06:38;;;;;;;12.40;10.30;;;;;;;10.36;51.69;99274.67;111456;1253;21921;-73
2024/03/24 09:09:08;;;;;;;16.60;12.10;;;;;;;10.82;50.49;99270.79;111461;1253;23390;-72
2024/03/24 09:11:36;;;;;;;16.00;11.60;;;;;;;10.96;49.47;99269.04;111397;1253;22742;-73
2024/03/24 09:14:05;;;;;;;13.00;9.10;;;;;;;11.15;50.31;99262.52;111459;1253;22849;-73
2024/03/24 09:16:34;;;;;;;11.20;8.20;;;;;;;11.61;49.00;99259.74;111355;1253;21962;-74
2024/03/24 09:19:05;;;;;;;9.70;8.60;;;;;;;11.91;48.04;99252.45;111223;1254;21979;-73
2024/03/24 09:21:35;;;;;;;8.60;7.20;;;;;;;12.17;47.40;99253.39;111333;1254;21980;-73
2024/03/24 09:24:04;;;;;;;8.90;7.90;;;;;;;12.31;47.30;99249.02;111381;1254;22348;-72
2024/03/24 09:26:35;;;;;;;11.20;8.20;;;;;;;12.70;47.07;99249.90;111315;1254;21953;-73
2024/03/24 09:29:04;;;;;;;8.60;7.80;;;;;;;13.15;45.34;99248.02;111503;1254;22029;-72
2024/03/24 09:31:33;;;;;;;10.90;7.70;;;;;;;13.59;44.51;99254.09;111404;1254;23596;-72
2024/03/24 09:34:02;;;;;;;8.90;6.40;;;;;;;13.74;43.60;99255.44;111454;1254;22522;-73
2024/03/24 09:36:31;;;;;;;9.60;7.50;;;;;;;13.85;42.34;99258.30;111316;1254;21966;-74
2024/03/24 09:39:00;;;;;;;8.90;6.50;;;;;;;13.70;42.42;99254.22;111416;1254;23097;-72
2024/03/24 09:41:29;;;;;;;10.70;7.90;;;;;;;13.35;43.12;99253.45;111412;1254;23698;-72
2024/03/24 09:43:58;;;;;;;12.20;10.60;;;;;;;12.98;43.59;99253.70;111405;1254;23573;-74
2024/03/24 09:46:30;;;;;;;10.90;8.20;;;;;;;12.63;43.54;99249.58;111372;1254;22961;-73
2024/03/24 09:48:59;;;;;;;8.00;7.20;;;;;;;12.35;44.65;99248.34;111421;1251;23667;-73
2024/03/24 09:51:28;;;;;;;11.30;9.70;;;;;;;12.09;44.42;99247.45;111224;1254;22766;-73
2024/03/24 09:53:57;;;;;;;14.00;8.40;;;;;;;11.77;44.32;99240.84;111485;1252;24417;-73
2024/03/24 09:56:27;;;;;;;19.40;12.20;;;;;;;11.44;45.42;99240.02;111227;1253;21942;-73
2024/03/24 09:59:02;;;;;;;14.20;10.10;;;;;;;11.50;46.30;99238.96;111473;1253;21960;-74
2024/03/24 10:01:32;;;;;;;14.50;9.30;;;;;;;11.69;45.28;99234.38;111502;1253;21960;-73
2024/03/24 10:04:01;;;;;;;11.50;8.30;;;;;;;12.01;45.11;99228.27;111385;1253;22964;-73
2024/03/24 10:06:32;;;;;;;16.80;12.80;;;;;;;12.14;44.56;99226.13;111188;1253;23675;-72
2024/03/24 10:09:02;;;;;;;13.70;10.30;;;;;;;12.01;44.09;99227.18;111318;1253;21998;-72
2024/03/24 10:11:35;;;;;;;11.40;9.10;;;;;;;11.77;44.55;99227.14;111317;1253;21996;-73
2024/03/24 10:14:09;;;;;;;11.40;8.40;;;;;;;11.53;44.97;99227.02;111334;1253;21964;-73
2024/03/24 10:16:37;;;;;;;11.30;8.90;;;;;;;11.25;45.03;99229.25;111925;1253;21980;-72
2024/03/24 10:19:14;;;;;;;10.90;7.50;;;;;;;11.06;45.19;99232.37;112664;1253;21966;-72
2024/03/24 10:21:45;;;;;;;14.30;9.10;;;;;;;11.04;46.01;99221.80;112216;1253;21935;-74
2024/03/24 10:24:16;;;;;;;7.20;5.60;;;;;;;11.23;45.99;99221.86;111384;1253;21955;-74
2024/03/24 10:26:47;;;;;;;6.50;5.80;;;;;;;11.38;46.35;99219.27;111052;1241;23010;-74
2024/03/24 10:29:20;;;;;;;7.70;6.00;;;;;;;11.45;45.92;99218.02;111301;1253;22005;-73
2024/03/24 10:31:50;;;;;;;8.30;6.30;;;;;;;11.30;44.47;99214.65;111255;1253;21956;-74
2024/03/24 10:34:20;;;;;;;10.70;7.80;;;;;;;11.08;45.21;99211.63;111279;1253;22732;-72
2024/03/24 10:36:49;;;;;;;12.40;8.10;;;;;;;10.77;45.65;99207.70;111332;1253;21974;-75
2024/03/24 10:39:20;;;;;;;10.60;7.70;;;;;;;10.43;46.81;99202.08;111358;1253;23630;-74
2024/03/24 10:41:52;;;;;;;10.60;7.40;;;;;;;10.18;46.83;99199.52;111385;1253;23716;-73
2024/03/24 10:44:25;;;;;;;10.80;7.60;;;;;;;9.98;46.78;99195.75;111424;1253;21955;-73
2024/03/24 10:46:55;;;;;;;7.90;5.30;;;;;;;10.28;47.91;99190.48;111251;1253;21952;-74
2024/03/24 10:49:29;;;;;;;6.60;4.50;;;;;;;10.84;46.93;99186.08;111201;1253;21961;-75
2024/03/24 10:51:58;;;;;;;9.60;8.60;;;;;;;11.42;46.40;99178.33;111354;1253;21946;-68
2024/03/24 10:54:27;;;;;;;7.60;4.90;;;;;;;11.58;45.13;99178.94;111209;1253;22001;-74
2024/03/24 10:56:56;;;;;;;7.00;4.10;;;;;;;11.51;43.72;99176.59;111322;1253;21956;-73
2024/03/24 10:59:26;;;;;;;7.80;5.00;;;;;;;11.35;42.94;99178.65;111303;1253;23593;-72
2024/03/24 11:01:55;;;;;;;6.40;5.00;;;;;;;11.10;42.83;99180.04;111375;1253;21951;-71
2024/03/24 11:04:26;;;;;;;8.70;6.00;;;;;;;10.83;43.06;99180.34;111229;1253;21971;-72
2024/03/24 11:06:55;;;;;;;9.50;5.90;;;;;;;10.55;43.37;99181.67;111308;1248;22934;-73
2024/03/24 11:09:24;;;;;;;7.50;3.60;;;;;;;10.31;43.06;99185.16;111378;1253;22014;-73
2024/03/24 11:11:53;;;;;;;12.10;7.30;;;;;;;10.15;42.78;99177.77;111272;1253;23585;-73
2024/03/24 11:14:24;;;;;;;7.20;5.50;;;;;;;10.05;43.21;99171.98;111240;1253;22744;-72
2024/03/24 11:16:54;;;;;;;12.90;6.90;;;;;;;10.14;43.86;99167.30;111262;1253;206060;-72
2024/03/24 11:19:28;;;;;;;5.80;5.20;;;;;;;10.29;44.33;99166.52;111300;1251;21956;-73
2024/03/24 11:22:34;;;;;;;5.50;3.90;;;;;;;10.49;44.01;99167.59;111307;1253;21998;-73
2024/03/24 11:25:04;;;;;;;5.40;4.40;;;;;;;10.58;43.11;99160.13;111206;1253;23152;-72
2024/03/24 11:27:38;;;;;;;6.30;4.30;;;;;;;10.56;42.79;99155.16;111365;1253;22739;-73
2024/03/24 11:30:18;;;;;;;7.00;4.80;;;;;;;10.51;42.75;99153.45;111357;1253;21947;-72